Time;durP1;ratioP1;P1;durP2;ratioP2;P2;SDS_P1;SDS_P2;PMS_P1;PMS_P2;Temp;Humidity;BMP_temperature;BMP_pressure;BME280_temperature;BME280_humidity;BME280_pressure;Samples;Min_cycle;Max_cycle;Signal;HPM_P1;HPM_P2
2022/09/22 00:01:50;;;;;;;3.42;1.65;;;;;;;6.93;100.00;96492.47;10306295;28;96944;-68
2022/09/22 00:06:55;;;;;;;2.83;1.60;;;;;;;6.81;100.00;96490.81;10310179;28;97251;-68
2022/09/22 00:11:59;;;;;;;4.43;1.60;;;;;;;6.78;100.00;96491.91;10336891;28;97720;-67
2022/09/22 00:17:02;;;;;;;4.00;2.05;;;;;;;6.70;100.00;96494.25;10324138;28;97510;-68
2022/09/22 00:22:06;;;;;;;4.40;1.90;;;;;;;6.56;100.00;96502.28;10308150;28;96951;-67
2022/09/22 00:27:10;;;;;;;4.65;1.80;;;;;;;6.56;100.00;96503.09;10321387;28;96771;-67
2022/09/22 00:32:13;;;;;;;5.28;1.60;;;;;;;6.54;100.00;96494.59;10325588;28;96739;-67
2022/09/22 00:37:16;;;;;;;2.72;1.92;;;;;;;6.45;100.00;96496.13;10336932;28;97673;-68
2022/09/22 00:42:21;;;;;;;3.75;1.70;;;;;;;6.40;100.00;96498.25;10336606;28;96834;-67
2022/09/22 00:47:35;;;;;;;3.83;1.80;;;;;;;6.31;100.00;96491.13;10321006;28;97149;-67
2022/09/22 00:52:43;;;;;;;2.42;1.55;;;;;;;6.24;100.00;96482.16;10360280;28;96849;-67
2022/09/22 00:57:49;;;;;;;3.20;2.00;;;;;;;6.18;100.00;96482.63;10297826;28;97033;-67
2022/09/22 01:02:56;;;;;;;4.47;2.10;;;;;;;6.19;100.00;96489.44;10332578;28;97317;-68
2022/09/22 01:08:00;;;;;;;2.88;1.50;;;;;;;6.23;100.00;96485.72;10333640;28;97524;-67
2022/09/22 01:13:18;;;;;;;3.95;1.90;;;;;;;6.22;100.00;96478.84;10333863;28;96679;-67
2022/09/22 01:18:26;;;;;;;3.58;1.80;;;;;;;6.33;100.00;96484.06;10320938;28;96742;-67
2022/09/22 01:24:07;;;;;;;4.65;1.55;;;;;;;6.30;100.00;96491.25;10327823;28;98686;-68
2022/09/22 01:29:42;;;;;;;3.42;1.70;;;;;;;6.24;100.00;96487.34;10167312;28;97374;-67
2022/09/22 01:34:56;;;;;;;4.63;1.77;;;;;;;6.20;100.00;96485.94;10150294;28;100932;-67
2022/09/22 01:40:05;;;;;;;2.38;1.50;;;;;;;6.19;100.00;96484.25;10167541;28;97614;-67
2022/09/22 01:45:10;;;;;;;4.55;1.85;;;;;;;5.86;100.00;96436.56;10130072;28;96972;-67
2022/09/22 01:50:18;;;;;;;2.58;1.60;;;;;;;6.15;100.00;96483.66;10129598;28;97187;-67
2022/09/22 01:55:27;;;;;;;2.58;1.67;;;;;;;6.17;100.00;96475.78;10160649;28;97922;-67
2022/09/22 02:00:31;;;;;;;3.17;1.83;;;;;;;6.18;100.00;96480.03;10191953;28;97113;-68
2022/09/22 02:05:40;;;;;;;4.90;1.70;;;;;;;6.09;100.00;96479.78;10323379;28;97172;-67
2022/09/22 02:10:46;;;;;;;3.38;1.73;;;;;;;6.01;100.00;96482.09;10317082;28;97231;-67
2022/09/22 02:16:00;;;;;;;4.38;1.90;;;;;;;5.93;100.00;96484.44;10334332;28;96801;-67
2022/09/22 02:21:05;;;;;;;2.50;1.37;;;;;;;5.85;100.00;96474.63;10336680;28;96850;-67
2022/09/22 02:26:08;;;;;;;3.43;1.60;;;;;;;5.75;100.00;96470.25;10355426;28;96885;-67
2022/09/22 02:31:13;;;;;;;2.45;1.60;;;;;;;5.64;100.00;96469.25;10294892;28;96898;-67
2022/09/22 02:36:43;;;;;;;2.60;1.48;;;;;;;5.60;100.00;96477.34;10302589;28;96785;-67
2022/09/22 02:41:57;;;;;;;3.70;1.95;;;;;;;5.47;100.00;96469.66;10329841;28;96664;-67
2022/09/22 02:47:06;;;;;;;8.55;2.00;;;;;;;5.42;100.00;96474.31;10300374;28;96799;-67
2022/09/22 02:52:12;;;;;;;2.58;1.90;;;;;;;5.31;100.00;96459.56;10321455;28;97299;-67
2022/09/22 02:57:15;;;;;;;2.30;1.55;;;;;;;5.29;100.00;96464.03;10383043;28;96772;-67
2022/09/22 03:02:17;;;;;;;3.90;1.80;;;;;;;5.30;100.00;96466.47;10336721;28;97057;-67
2022/09/22 03:07:22;;;;;;;3.70;1.90;;;;;;;5.23;100.00;96470.44;10338942;28;96756;-67
2022/09/22 03:12:25;;;;;;;2.25;2.00;;;;;;;5.20;100.00;96470.69;10315181;28;96740;-67
2022/09/22 03:17:27;;;;;;;2.80;2.00;;;;;;;5.09;100.00;96468.03;10325999;28;96806;-67
2022/09/22 03:22:32;;;;;;;2.53;1.77;;;;;;;5.01;100.00;96468.56;10319965;28;98380;-67
2022/09/22 03:27:34;;;;;;;3.60;2.20;;;;;;;4.99;100.00;96472.19;10340006;28;97478;-67
2022/09/22 03:32:37;;;;;;;4.18;2.03;;;;;;;5.02;100.00;96477.16;10299640;28;96858;-67
2022/09/22 03:37:41;;;;;;;5.03;2.30;;;;;;;4.96;100.00;96474.06;10325877;28;96918;-67
2022/09/22 03:42:44;;;;;;;6.60;2.40;;;;;;;4.98;100.00;96463.59;10381567;28;96694;-67
2022/09/22 03:47:47;;;;;;;5.22;2.03;;;;;;;4.95;100.00;96462.03;10357115;28;97288;-67
2022/09/22 03:52:51;;;;;;;4.68;2.00;;;;;;;4.92;100.00;96457.09;10355318;28;96784;-67
2022/09/22 03:57:54;;;;;;;2.88;2.00;;;;;;;4.88;100.00;96466.00;10356614;28;97597;-67
2022/09/22 04:02:57;;;;;;;3.95;2.38;;;;;;;4.86;100.00;96460.09;10315809;28;97530;-67
2022/09/22 04:08:01;;;;;;;4.15;2.17;;;;;;;4.90;100.00;96468.47;10314534;28;98507;-67
2022/09/22 04:13:04;;;;;;;6.07;1.95;;;;;;;4.88;100.00;96460.81;10334437;28;97077;-67
2022/09/22 04:18:07;;;;;;;4.45;2.20;;;;;;;4.82;100.00;96455.22;10297524;28;96704;-67
2022/09/22 04:23:13;;;;;;;4.32;2.10;;;;;;;4.88;100.00;96458.22;10316350;28;97118;-67
2022/09/22 04:28:15;;;;;;;4.93;2.13;;;;;;;4.87;100.00;96447.97;10302096;28;97190;-67
2022/09/22 04:33:18;;;;;;;3.38;1.92;;;;;;;4.84;100.00;96454.22;10296781;28;97902;-67
2022/09/22 04:38:22;;;;;;;3.13;2.05;;;;;;;4.79;100.00;96455.47;10317582;28;96745;-67
2022/09/22 04:43:25;;;;;;;4.10;2.20;;;;;;;4.73;100.00;96457.56;10337026;28;96825;-67
2022/09/22 04:48:28;;;;;;;5.57;2.42;;;;;;;4.72;100.00;96455.06;10309746;28;98857;-67
2022/09/22 04:53:32;;;;;;;3.88;2.38;;;;;;;4.73;100.00;96454.13;10336257;28;96890;-67
2022/09/22 04:58:35;;;;;;;3.58;1.88;;;;;;;4.56;100.00;96444.94;10378110;28;96897;-67
2022/09/22 05:03:37;;;;;;;3.70;2.03;;;;;;;4.54;100.00;96447.66;10348334;28;96973;-67
2022/09/22 05:08:42;;;;;;;3.75;1.85;;;;;;;4.47;100.00;96454.19;10347596;28;96752;-67
2022/09/22 05:13:45;;;;;;;4.28;2.25;;;;;;;4.38;100.00;96453.00;10378618;28;96649;-67
2022/09/22 05:18:49;;;;;;;3.20;2.30;;;;;;;4.37;100.00;96459.13;10325263;28;98424;-67
2022/09/22 05:23:54;;;;;;;4.70;2.65;;;;;;;4.40;100.00;96465.84;10377054;28;97628;-67
2022/09/22 05:28:57;;;;;;;2.92;2.33;;;;;;;4.38;100.00;96458.19;10333168;28;97737;-67
2022/09/22 05:34:00;;;;;;;3.28;2.50;;;;;;;4.38;100.00;96457.38;10346057;28;96734;-66
2022/09/22 05:39:04;;;;;;;6.00;2.83;;;;;;;4.34;100.00;96451.56;10336771;28;96778;-67
2022/09/22 05:44:07;;;;;;;5.63;2.70;;;;;;;4.40;100.00;96465.84;10344338;28;96801;-67
2022/09/22 05:49:10;;;;;;;4.43;3.03;;;;;;;4.45;100.00;96468.13;10330733;28;96778;-67
2022/09/22 05:54:14;;;;;;;4.05;2.50;;;;;;;4.52;100.00;96470.19;10363510;28;96906;-67
2022/09/22 05:59:22;;;;;;;6.35;2.15;;;;;;;4.60;100.00;96466.25;10352905;28;99582;-67
2022/09/22 06:04:25;;;;;;;3.78;2.53;;;;;;;4.67;100.00;96476.06;10327549;28;96702;-67
2022/09/22 06:09:29;;;;;;;3.80;2.60;;;;;;;4.72;100.00;96486.13;10322571;28;98403;-67
2022/09/22 06:14:32;;;;;;;4.25;2.30;;;;;;;4.85;100.00;96481.72;10319731;28;98685;-67
2022/09/22 06:19:35;;;;;;;8.43;2.90;;;;;;;4.92;100.00;96493.34;10329192;28;97822;-67
2022/09/22 06:24:39;;;;;;;8.80;3.25;;;;;;;5.19;100.00;96491.50;10356587;28;98094;-66
2022/09/22 06:29:41;;;;;;;4.25;2.47;;;;;;;5.41;100.00;96491.66;10347237;28;96977;-67
2022/09/22 06:34:44;;;;;;;4.78;2.45;;;;;;;5.71;100.00;96493.78;10315500;28;96677;-67
2022/09/22 06:39:48;;;;;;;3.75;2.50;;;;;;;6.08;100.00;96504.03;10337976;28;96829;-67
2022/09/22 06:44:52;;;;;;;7.32;2.70;;;;;;;6.43;100.00;96495.41;10325773;28;99440;-67
2022/09/22 06:49:55;;;;;;;5.70;2.30;;;;;;;6.67;100.00;96494.47;10337901;28;98522;-67
2022/09/22 06:54:59;;;;;;;4.50;2.40;;;;;;;6.72;100.00;96492.34;10335496;28;97095;-67
2022/09/22 07:00:03;;;;;;;7.20;2.80;;;;;;;6.82;100.00;96487.28;10323152;28;99088;-67
2022/09/22 07:05:07;;;;;;;5.47;2.50;;;;;;;6.89;100.00;96487.66;10328654;28;96863;-67
2022/09/22 07:10:11;;;;;;;5.18;2.45;;;;;;;7.01;100.00;96491.94;10334244;28;97207;-67
2022/09/22 07:15:14;;;;;;;5.82;2.33;;;;;;;7.17;100.00;96496.75;10340334;28;98166;-67
2022/09/22 07:20:17;;;;;;;5.90;2.88;;;;;;;7.29;100.00;96503.56;10339302;28;97903;-67
2022/09/22 07:25:22;;;;;;;5.68;3.20;;;;;;;7.40;100.00;96498.34;10334692;28;97352;-67
2022/09/22 07:30:25;;;;;;;5.82;2.92;;;;;;;7.54;100.00;96507.63;10337735;28;97188;-67
2022/09/22 07:35:28;;;;;;;5.22;2.67;;;;;;;7.57;100.00;96502.19;10339852;28;96792;-67
2022/09/22 07:40:32;;;;;;;3.95;2.85;;;;;;;7.55;100.00;96496.31;10336809;28;97218;-67
2022/09/22 07:45:35;;;;;;;5.82;3.08;;;;;;;7.74;100.00;96500.03;10340113;28;96827;-67
2022/09/22 07:50:38;;;;;;;7.97;2.70;;;;;;;8.00;100.00;96494.50;10339401;28;96839;-67
2022/09/22 07:55:42;;;;;;;5.30;2.97;;;;;;;8.17;100.00;96491.34;10352826;28;97412;-67
2022/09/22 08:00:45;;;;;;;4.13;2.70;;;;;;;8.37;100.00;96501.88;10381965;28;96707;-67
2022/09/22 08:05:48;;;;;;;5.65;2.42;;;;;;;8.64;100.00;96496.16;10381887;28;96711;-67
2022/09/22 08:10:52;;;;;;;4.88;2.67;;;;;;;8.83;100.00;96488.41;10340466;28;98427;-67
2022/09/22 08:15:55;;;;;;;4.07;2.63;;;;;;;9.03;100.00;96485.88;10352454;28;97017;-67
2022/09/22 08:20:59;;;;;;;5.40;2.80;;;;;;;9.02;100.00;96495.47;10381159;28;96791;-67
2022/09/22 08:26:09;;;;;;;2.92;2.60;;;;;;;9.15;100.00;96497.84;10340971;28;96972;-67
2022/09/22 08:31:13;;;;;;;4.05;2.72;;;;;;;9.22;100.00;96490.31;10339718;28;96784;-67
2022/09/22 08:36:16;;;;;;;3.85;2.30;;;;;;;9.36;100.00;96487.34;10339776;28;96918;-67
2022/09/22 08:41:29;;;;;;;5.55;2.70;;;;;;;9.55;100.00;96488.38;10338035;28;96782;-67
2022/09/22 08:46:33;;;;;;;5.28;2.60;;;;;;;9.68;100.00;96494.16;10335357;28;97700;-67
2022/09/22 08:51:52;;;;;;;3.95;2.60;;;;;;;9.76;100.00;96496.88;10319535;28;97628;-67
2022/09/22 08:57:11;;;;;;;4.68;2.53;;;;;;;9.89;100.00;96495.78;10315315;28;98508;-67
2022/09/22 09:02:43;;;;;;;4.82;2.97;;;;;;;9.97;100.00;96498.56;10300459;28;98592;-67
2022/09/22 09:07:57;;;;;;;5.43;2.92;;;;;;;10.01;100.00;96485.09;10349492;28;96993;-67
2022/09/22 09:13:16;;;;;;;4.47;2.60;;;;;;;10.13;100.00;96480.56;10363455;28;96808;-67
2022/09/22 09:18:25;;;;;;;6.28;2.90;;;;;;;10.32;100.00;96473.66;10318260;28;96817;-67
2022/09/22 09:23:32;;;;;;;4.32;2.63;;;;;;;10.51;100.00;96473.63;10296090;28;97289;-67
2022/09/22 09:29:00;;;;;;;4.32;2.80;;;;;;;10.68;100.00;96468.63;10297004;28;96786;-67
2022/09/22 09:34:10;;;;;;;6.30;3.45;;;;;;;10.82;100.00;96468.13;10307622;28;96711;-67
2022/09/22 09:39:16;;;;;;;5.75;2.70;;;;;;;10.98;100.00;96476.22;10351748;28;96783;-67
2022/09/22 09:44:27;;;;;;;3.38;2.40;;;;;;;11.12;100.00;96461.00;10337015;28;96762;-68
2022/09/22 09:49:31;;;;;;;4.90;3.25;;;;;;;11.35;100.00;96454.44;10337559;28;96680;-68
2022/09/22 09:54:36;;;;;;;3.78;2.30;;;;;;;11.46;100.00;96449.97;10336856;28;96835;-67
2022/09/22 10:05:06;;;;;;;4.93;2.75;;;;;;;11.82;100.00;96445.56;10336938;28;97069;-68
2022/09/22 10:10:32;;;;;;;5.53;3.05;;;;;;;11.86;100.00;96435.59;10336721;28;96831;-67
2022/09/22 10:15:39;;;;;;;4.28;2.95;;;;;;;11.96;100.00;96431.13;10336968;28;96942;-67
2022/09/22 10:20:42;;;;;;;3.58;2.65;;;;;;;12.09;100.00;96431.56;10336239;28;98009;-68
2022/09/22 10:25:45;;;;;;;4.45;2.88;;;;;;;12.18;100.00;96428.97;10335401;28;97000;-68
2022/09/22 10:30:57;;;;;;;5.72;2.83;;;;;;;12.15;100.00;96431.91;10336059;28;96656;-68
2022/09/22 10:36:05;;;;;;;7.00;3.10;;;;;;;12.38;100.00;96419.94;10335661;28;96775;-67
2022/09/22 10:41:16;;;;;;;5.32;3.30;;;;;;;12.55;100.00;96414.81;10336005;28;96830;-68
2022/09/22 10:46:48;;;;;;;5.10;3.10;;;;;;;12.64;100.00;96409.44;10335924;28;96754;-68
2022/09/22 10:52:04;;;;;;;5.78;3.10;;;;;;;12.88;100.00;96407.91;10335223;28;97165;-68
2022/09/22 10:57:19;;;;;;;6.70;3.00;;;;;;;13.15;100.00;96406.91;10339309;28;96806;-68
2022/09/22 11:02:40;;;;;;;6.30;3.05;;;;;;;13.39;100.00;96402.69;10343335;28;96657;-68
2022/09/22 11:13:35;;;;;;;4.30;3.20;;;;;;;13.58;100.00;96386.63;10300941;28;96775;-68
2022/09/22 11:18:54;;;;;;;6.80;3.47;;;;;;;13.69;100.00;96384.66;10300646;28;96977;-68
2022/09/22 11:24:12;;;;;;;6.68;3.28;;;;;;;13.86;100.00;96381.06;10348632;28;96915;-67
2022/09/22 11:29:36;;;;;;;6.40;3.50;;;;;;;13.96;100.00;96379.09;10383072;28;97070;-68
2022/09/22 11:35:15;;;;;;;5.95;3.30;;;;;;;14.03;100.00;96367.94;10372862;28;96965;-68
2022/09/22 11:40:37;;;;;;;7.38;3.90;;;;;;;14.21;100.00;96363.31;10346945;28;96766;-68
2022/09/22 11:45:49;;;;;;;7.65;3.95;;;;;;;14.27;100.00;96370.50;10341242;28;96825;-68
2022/09/22 11:51:15;;;;;;;6.25;3.85;;;;;;;14.41;100.00;96361.16;10336303;28;97061;-68
2022/09/22 11:56:39;;;;;;;6.88;3.38;;;;;;;14.55;100.00;96355.19;10300589;28;98137;-67
2022/09/22 12:01:43;;;;;;;4.65;3.47;;;;;;;14.77;100.00;96354.63;10333784;28;96784;-68
2022/09/22 12:06:51;;;;;;;7.30;3.35;;;;;;;14.74;100.00;96340.81;10327618;28;97448;-68
2022/09/22 12:11:58;;;;;;;5.60;3.17;;;;;;;14.80;100.00;96343.75;10336664;28;96841;-68
2022/09/22 12:17:06;;;;;;;6.05;3.33;;;;;;;14.96;100.00;96333.16;10340216;28;97049;-68
2022/09/22 12:22:19;;;;;;;7.88;3.40;;;;;;;15.18;100.00;96330.72;10345929;28;96776;-68
2022/09/22 12:27:24;;;;;;;4.22;2.65;;;;;;;15.16;100.00;96327.44;10339895;28;96828;-68
2022/09/22 12:32:30;;;;;;;;;;;;;;;15.33;100.00;96323.72;10339750;28;96736;-68
2022/09/22 12:37:38;;;;;;;3.65;2.38;;;;;;;15.52;100.00;96322.41;10352326;28;97789;-68
2022/09/22 12:42:45;;;;;;;6.88;2.85;;;;;;;15.69;100.00;96313.41;10377642;28;96817;-68
2022/09/22 12:47:51;;;;;;;5.68;3.13;;;;;;;15.89;100.00;96310.28;10363770;28;97469;-68
2022/09/22 12:53:03;;;;;;;5.80;2.90;;;;;;;15.93;100.00;96305.47;10362283;28;97030;-68
2022/09/22 12:58:41;;;;;;;5.65;2.30;;;;;;;16.19;100.00;96308.50;10346794;28;100184;-68
2022/09/22 13:03:49;;;;;;;5.57;2.53;;;;;;;16.33;100.00;96298.13;10336454;28;98822;-68
2022/09/22 13:09:21;;;;;;;7.32;2.92;;;;;;;16.44;100.00;96281.88;10325571;28;96882;-68
2022/09/22 13:14:58;;;;;;;3.60;2.05;;;;;;;16.60;100.00;96294.03;10340963;28;96873;-68
2022/09/22 13:20:06;;;;;;;4.25;2.10;;;;;;;16.79;100.00;96284.75;10337216;28;96802;-69
2022/09/22 13:25:19;;;;;;;4.07;2.47;;;;;;;16.89;100.00;96281.81;10303955;28;96800;-68
2022/09/22 13:30:22;;;;;;;6.13;2.72;;;;;;;16.99;100.00;96280.50;10296062;28;96751;-69
2022/09/22 13:35:26;;;;;;;5.80;2.90;;;;;;;17.10;99.88;96268.63;10296441;28;96710;-69
2022/09/22 13:40:33;;;;;;;3.43;2.37;;;;;;;17.12;100.00;96261.34;10296827;28;96691;-69
2022/09/22 13:45:39;;;;;;;6.15;2.28;;;;;;;17.71;98.24;96262.88;10296430;28;96739;-69
2022/09/22 13:50:53;;;;;;;4.10;2.45;;;;;;;18.04;95.16;96249.09;10351174;28;97124;-69
2022/09/22 13:55:57;;;;;;;5.30;2.47;;;;;;;18.22;93.75;96261.81;10336534;28;97574;-69
2022/09/22 14:01:00;;;;;;;;;;;;;;;18.67;93.54;96258.75;10337566;28;96784;-69
2022/09/22 14:06:18;;;;;;;4.82;1.90;;;;;;;18.75;90.92;96242.69;10363332;28;96789;-69
2022/09/22 14:11:24;;;;;;;3.97;2.10;;;;;;;18.73;87.32;96250.03;10336568;28;96693;-69
2022/09/22 14:16:35;;;;;;;5.50;2.10;;;;;;;18.46;85.37;96247.28;10322774;28;96967;-69
2022/09/22 14:21:49;;;;;;;4.43;1.70;;;;;;;18.57;86.01;96239.78;10301010;28;96972;-69
2022/09/22 14:26:55;;;;;;;5.35;1.90;;;;;;;18.65;86.13;96239.59;10336533;28;97014;-69
2022/09/22 14:32:10;;;;;;;4.35;1.77;;;;;;;18.74;82.67;96224.38;10341737;28;96862;-69
2022/09/22 14:37:22;;;;;;;3.30;1.50;;;;;;;18.61;83.48;96231.25;10343513;28;96832;-69
2022/09/22 14:42:28;;;;;;;3.40;1.48;;;;;;;18.71;82.78;96222.94;10342717;28;96732;-69
2022/09/22 14:47:37;;;;;;;4.15;1.50;;;;;;;18.97;81.04;96227.53;10342570;28;96629;-69
2022/09/22 14:52:46;;;;;;;3.05;1.48;;;;;;;19.38;78.66;96225.72;10355588;28;96711;-69
2022/09/22 14:57:51;;;;;;;3.28;1.33;;;;;;;19.54;77.34;96219.19;10384050;28;96730;-69
2022/09/22 15:02:56;;;;;;;3.22;1.48;;;;;;;19.81;76.46;96212.03;10384026;28;96691;-69
2022/09/22 15:08:00;;;;;;;4.30;1.60;;;;;;;19.76;74.64;96225.91;10366959;28;96813;-69
2022/09/22 15:13:19;;;;;;;3.93;1.33;;;;;;;19.48;75.67;96223.50;10339638;28;98812;-69
2022/09/22 15:18:22;;;;;;;2.42;1.27;;;;;;;19.49;75.75;96227.78;10301063;28;96649;-69
2022/09/22 15:23:31;;;;;;;3.42;1.40;;;;;;;19.94;74.25;96213.88;10322215;28;96809;-69
2022/09/22 15:28:37;;;;;;;2.65;1.40;;;;;;;20.25;71.47;96223.81;10341240;28;97943;-70
2022/09/22 15:33:40;;;;;;;2.78;1.30;;;;;;;20.20;71.08;96215.66;10364197;28;99630;-70
2022/09/22 15:38:43;;;;;;;2.70;1.10;;;;;;;20.47;69.40;96202.28;10381804;28;96755;-70
2022/09/22 15:43:47;;;;;;;3.35;1.10;;;;;;;20.62;68.68;96208.16;10381724;28;96690;-70
2022/09/22 15:48:50;;;;;;;4.45;1.33;;;;;;;20.85;68.98;96212.16;10331378;28;96891;-70
2022/09/22 15:53:53;;;;;;;2.47;1.20;;;;;;;21.07;67.29;96199.34;10299629;28;96859;-70
2022/09/22 15:59:00;;;;;;;2.70;1.17;;;;;;;21.46;65.52;96198.22;10299631;28;96874;-69
2022/09/22 16:04:03;;;;;;;3.08;1.40;;;;;;;21.57;64.89;96193.22;10299527;28;96708;-70
2022/09/22 16:09:05;;;;;;;3.60;1.38;;;;;;;21.45;66.19;96185.97;10305604;28;96740;-70
2022/09/22 16:14:10;;;;;;;6.28;1.38;;;;;;;21.60;64.90;96195.44;10349437;28;96759;-70
2022/09/22 16:19:13;;;;;;;3.22;1.45;;;;;;;21.66;64.91;96191.97;10349873;28;96998;-70
2022/09/22 16:24:16;;;;;;;2.33;1.30;;;;;;;22.01;62.74;96191.41;10379557;28;97022;-70
2022/09/22 16:29:21;;;;;;;2.15;1.00;;;;;;;21.92;62.18;96195.38;10370097;28;98002;-70
2022/09/22 16:34:23;;;;;;;2.90;1.25;;;;;;;21.91;62.14;96199.09;10378010;28;96709;-70
2022/09/22 16:39:27;;;;;;;3.40;1.30;;;;;;;21.70;63.92;96198.47;10355980;28;96819;-70
2022/09/22 16:44:31;;;;;;;2.17;1.60;;;;;;;21.06;68.56;96198.53;10371449;28;96962;-70
2022/09/22 16:49:34;;;;;;;3.60;1.58;;;;;;;20.01;73.89;96206.75;10337724;28;96819;-69
2022/09/22 16:54:37;;;;;;;6.32;1.50;;;;;;;19.10;78.61;96210.84;10336623;28;97756;-71
2022/09/22 16:59:41;;;;;;;4.90;1.50;;;;;;;18.38;82.54;96209.63;10332107;28;98851;-71
2022/09/22 17:04:44;;;;;;;3.30;1.77;;;;;;;17.78;87.25;96212.72;10328850;28;96847;-70
2022/09/22 17:09:47;;;;;;;2.60;1.52;;;;;;;17.38;90.13;96207.16;10343320;28;96779;-70
2022/09/22 17:14:51;;;;;;;4.90;1.90;;;;;;;17.13;92.41;96215.47;10337260;28;96790;-70
2022/09/22 17:19:54;;;;;;;5.60;2.33;;;;;;;16.90;94.57;96215.66;10336908;28;97723;-71
2022/09/22 17:24:57;;;;;;;3.28;2.60;;;;;;;16.64;99.31;96224.09;10329913;28;97963;-70
2022/09/22 17:30:01;;;;;;;5.35;2.28;;;;;;;16.48;100.00;96227.75;10333534;28;97116;-71
2022/09/22 17:35:04;;;;;;;4.23;2.00;;;;;;;16.22;100.00;96233.50;10334385;28;96868;-70
2022/09/22 17:40:10;;;;;;;9.52;2.10;;;;;;;15.79;100.00;96236.81;10337487;28;97367;-70
2022/09/22 17:45:14;;;;;;;12.57;7.28;;;;;;;15.44;100.00;96249.59;10333748;28;96743;-67
2022/09/22 17:55:37;;;;;;;6.20;2.72;;;;;;;15.11;100.00;96244.59;10335555;28;98390;-71
2022/09/22 18:00:42;;;;;;;6.53;2.83;;;;;;;15.01;100.00;96246.66;10334775;28;97077;-73
2022/09/22 18:05:51;;;;;;;8.10;5.53;;;;;;;14.88;100.00;96251.66;10337006;28;97875;-69
2022/09/22 18:10:54;;;;;;;5.53;2.28;;;;;;;14.55;100.00;96257.09;10340423;28;96989;-72
2022/09/22 18:16:17;;;;;;;6.13;3.22;;;;;;;14.06;100.00;96257.28;10338922;28;97137;-72
2022/09/22 18:21:20;;;;;;;4.45;2.70;;;;;;;13.81;100.00;96267.81;10350305;28;98737;-72
2022/09/22 18:26:26;;;;;;;4.57;2.13;;;;;;;13.56;100.00;96267.03;10375533;28;96767;-72
2022/09/22 18:31:31;;;;;;;4.22;2.20;;;;;;;13.32;100.00;96270.50;10373715;28;97001;-71
2022/09/22 18:36:34;;;;;;;7.05;2.30;;;;;;;13.19;100.00;96271.81;10375881;28;97881;-71
2022/09/22 18:41:37;;;;;;;4.45;2.40;;;;;;;13.17;100.00;96273.78;10384644;28;97132;-71
2022/09/22 18:46:41;;;;;;;3.53;2.00;;;;;;;13.10;100.00;96271.97;10384980;28;96752;-72
2022/09/22 18:51:48;;;;;;;2.58;1.63;;;;;;;12.90;100.00;96277.47;10339769;28;96769;-71
2022/09/22 19:08:12;;;;;;;3.10;1.50;;;;;;;21.11;81.92;96254.47;10592093;27;96906;-67
2022/09/22 19:13:15;;;;;;;4.57;1.48;;;;;;;21.08;78.52;96254.09;10566383;27;96923;-63
2022/09/22 19:18:21;;;;;;;4.67;1.50;;;;;;;21.02;76.99;96269.03;10560505;27;97854;-67
2022/09/22 19:23:25;;;;;;;2.08;1.17;;;;;;;21.03;77.21;96273.34;10523188;27;96742;-64
2022/09/22 19:28:30;;;;;;;2.50;1.08;;;;;;;21.06;77.05;96272.88;10507426;27;96755;-63
2022/09/22 19:33:32;;;;;;;2.42;1.08;;;;;;;21.11;77.01;96278.38;10535248;27;96972;-64
2022/09/22 19:38:37;;;;;;;1.80;0.90;;;;;;;21.17;76.92;96278.53;10518501;27;98476;-64
2022/09/22 19:43:39;;;;;;;2.80;0.90;;;;;;;21.20;76.83;96278.94;10498223;27;96795;-64
2022/09/22 19:48:42;;;;;;;3.30;0.82;;;;;;;21.21;76.45;96285.09;10524093;27;96742;-64
2022/09/22 19:53:46;;;;;;;1.40;0.80;;;;;;;21.25;76.94;96287.06;10543287;27;97036;-64
2022/09/22 19:58:50;;;;;;;1.48;0.80;;;;;;;21.27;76.51;96284.22;10554736;27;98650;-64
2022/09/22 20:03:53;;;;;;;1.30;0.85;;;;;;;21.30;76.40;96283.78;10553768;27;99982;-64
2022/09/22 20:09:01;;;;;;;0.63;0.20;;;;;;;21.01;78.53;96283.31;10552469;27;98658;-62
2022/09/22 20:14:24;;;;;;;0.20;0.10;;;;;;;20.99;78.40;96287.25;10547075;27;96729;-60
2022/09/22 20:19:30;;;;;;;0.20;0.20;;;;;;;20.99;78.23;96284.59;10479243;27;96716;-60
2022/09/22 20:24:34;;;;;;;0.15;0.15;;;;;;;21.00;78.05;96279.06;10487751;27;98538;-60
2022/09/22 20:29:36;;;;;;;;;;;;;;;20.96;78.03;96272.53;10510348;27;97401;-60
2022/09/22 20:34:39;;;;;;;0.10;0.10;;;;;;;21.02;77.48;96271.69;10506621;27;97068;-60
2022/09/22 20:39:43;;;;;;;0.25;0.20;;;;;;;21.04;77.38;96269.63;10495609;27;97412;-60
2022/09/22 20:44:47;;;;;;;0.30;0.10;;;;;;;21.03;77.79;96268.03;10506714;27;97325;-60
2022/09/22 20:49:50;;;;;;;0.17;0.10;;;;;;;21.03;77.72;96277.81;10502919;27;96664;-60
2022/09/22 20:54:55;;;;;;;0.23;0.13;;;;;;;21.03;77.76;96281.31;10521157;27;96849;-60
2022/09/22 20:59:57;;;;;;;0.17;0.15;;;;;;;21.03;77.78;96283.13;10513255;27;97403;-62
2022/09/22 21:05:00;;;;;;;0.10;0.10;;;;;;;21.02;77.61;96274.34;10516320;27;97375;-59
2022/09/22 21:15:26;;;;;;;0.17;0.17;;;;;;;21.04;77.79;96276.78;10517559;27;96857;-59
2022/09/22 21:20:28;;;;;;;0.17;0.10;;;;;;;21.04;77.47;96282.91;10511190;27;96894;-59
2022/09/22 21:25:32;;;;;;;0.20;0.13;;;;;;;21.04;77.50;96274.94;10508534;27;97136;-59
2022/09/22 21:30:35;;;;;;;0.20;0.20;;;;;;;21.04;77.38;96274.13;10509320;27;96918;-59
2022/09/22 21:35:38;;;;;;;0.38;0.20;;;;;;;21.06;77.11;96277.38;10515738;27;97317;-58
2022/09/22 21:40:42;;;;;;;0.35;0.15;;;;;;;21.10;76.76;96274.09;10486788;27;96871;-59
2022/09/22 21:45:45;;;;;;;0.15;0.15;;;;;;;21.16;76.60;96276.94;10511482;27;96905;-59
2022/09/22 21:50:55;;;;;;;1.30;0.10;;;;;;;21.11;76.32;96273.06;10484902;27;97416;-59
2022/09/22 21:56:02;;;;;;;0.32;0.30;;;;;;;21.10;76.34;96275.94;10476486;27;97912;-59
2022/09/22 22:01:06;;;;;;;0.40;0.28;;;;;;;21.07;76.03;96277.19;10510650;27;96984;-59
2022/09/22 22:06:12;;;;;;;0.22;0.20;;;;;;;21.06;76.32;96280.03;10508835;27;98678;-59
2022/09/22 22:11:21;;;;;;;0.25;0.13;;;;;;;21.03;76.82;96277.81;10487220;27;96918;-58
2022/09/22 22:16:26;;;;;;;1.30;0.20;;;;;;;21.04;76.75;96274.94;10507944;27;96797;-59
2022/09/22 22:21:30;;;;;;;0.20;0.10;;;;;;;20.99;77.00;96269.47;10511973;27;96815;-59
2022/09/22 22:26:36;;;;;;;0.10;0.10;;;;;;;20.99;76.77;96274.75;10539904;27;97330;-59
2022/09/22 22:31:39;;;;;;;0.10;0.00;;;;;;;21.01;76.79;96274.56;10507571;27;96809;-61
2022/09/22 22:36:43;;;;;;;0.13;0.13;;;;;;;20.98;76.72;96275.81;10507086;27;98459;-61
2022/09/22 22:41:48;;;;;;;0.20;0.20;;;;;;;20.94;76.15;96269.28;10508099;27;97927;-62
2022/09/22 22:46:51;;;;;;;0.20;0.20;;;;;;;20.89;75.71;96277.91;10499851;27;96996;-60
2022/09/22 22:51:54;;;;;;;0.30;0.20;;;;;;;20.86;75.35;96277.47;10497624;27;98895;-60
2022/09/22 22:56:58;;;;;;;0.13;0.10;;;;;;;20.84;74.88;96279.53;10470816;27;96864;-60
2022/09/22 23:02:01;;;;;;;0.13;0.13;;;;;;;20.81;74.63;96274.63;10508985;27;97186;-60
2022/09/22 23:07:03;;;;;;;0.40;0.20;;;;;;;20.80;74.74;96268.53;10504147;27;96769;-60
2022/09/22 23:12:09;;;;;;;0.10;0.10;;;;;;;20.79;74.33;96271.38;10505753;27;96761;-60
2022/09/22 23:17:12;;;;;;;0.25;0.17;;;;;;;20.82;74.47;96270.97;10504510;27;96867;-60
2022/09/22 23:22:14;;;;;;;0.10;0.10;;;;;;;20.82;74.27;96265.66;10495899;27;97800;-59
2022/09/22 23:27:19;;;;;;;0.22;0.05;;;;;;;20.82;74.28;96268.31;10533887;27;96928;-59
2022/09/22 23:32:22;;;;;;;0.30;0.10;;;;;;;20.84;74.49;96267.09;10501509;27;96765;-59
2022/09/22 23:37:25;;;;;;;0.10;0.10;;;;;;;20.82;74.56;96266.47;10503839;27;96909;-59
2022/09/22 23:42:29;;;;;;;0.52;0.10;;;;;;;20.83;74.35;96262.81;10500538;27;96706;-59
2022/09/22 23:47:32;;;;;;;0.08;0.08;;;;;;;20.84;74.76;96264.44;10504192;27;96883;-58
2022/09/22 23:52:34;;;;;;;0.50;0.10;;;;;;;20.84;74.57;96263.59;10519882;27;97185;-58
2022/09/22 23:57:38;;;;;;;0.10;0.10;;;;;;;20.83;74.43;96262.00;10554110;27;96788;-59
